sensor_id;sensor_type;location;lat;lon;timestamp;pressure;altitude;pressure_sealevel;temperature;humidity
63194;BME280;49289;51.670;5.624;2023-12-07T00:01:09;102142.50;;;7.79;64.30
63194;BME280;49289;51.670;5.624;2023-12-07T00:02:56;102142.64;;;7.77;64.27
63194;BME280;49289;51.670;5.624;2023-12-07T00:04:43;102148.44;;;7.74;64.23
63194;BME280;49289;51.670;5.624;2023-12-07T00:06:30;102147.22;;;7.69;64.13
63194;BME280;49289;51.670;5.624;2023-12-07T00:08:16;102147.21;;;7.60;64.29
63194;BME280;49289;51.670;5.624;2023-12-07T00:10:03;102152.89;;;7.64;64.15
63194;BME280;49289;51.670;5.624;2023-12-07T00:11:50;102151.43;;;7.68;63.95
63194;BME280;49289;51.670;5.624;2023-12-07T00:13:37;102150.30;;;7.66;64.05
63194;BME280;49289;51.670;5.624;2023-12-07T00:15:24;102147.80;;;7.56;64.31
63194;BME280;49289;51.670;5.624;2023-12-07T00:17:11;102152.00;;;7.55;64.53
63194;BME280;49289;51.670;5.624;2023-12-07T00:18:58;102154.27;;;7.56;64.47
63194;BME280;49289;51.670;5.624;2023-12-07T00:20:45;102155.48;;;7.57;64.25
63194;BME280;49289;51.670;5.624;2023-12-07T00:22:32;102153.97;;;7.60;63.93
63194;BME280;49289;51.670;5.624;2023-12-07T00:24:20;102150.38;;;7.49;64.09
63194;BME280;49289;51.670;5.624;2023-12-07T00:26:07;102120.80;;;7.32;64.25
63194;BME280;49289;51.670;5.624;2023-12-07T00:27:54;102146.22;;;7.40;64.49
63194;BME280;49289;51.670;5.624;2023-12-07T00:29:42;102148.27;;;7.39;64.61
63194;BME280;49289;51.670;5.624;2023-12-07T00:31:29;102147.55;;;7.42;64.69
63194;BME280;49289;51.670;5.624;2023-12-07T00:33:16;102147.19;;;7.39;64.59
63194;BME280;49289;51.670;5.624;2023-12-07T00:35:03;102141.65;;;7.37;64.31
63194;BME280;49289;51.670;5.624;2023-12-07T00:36:50;102145.66;;;7.39;64.45
63194;BME280;49289;51.670;5.624;2023-12-07T00:38:37;102115.10;;;7.24;64.53
63194;BME280;49289;51.670;5.624;2023-12-07T00:40:24;102112.05;;;7.25;64.47
63194;BME280;49289;51.670;5.624;2023-12-07T00:42:11;102142.36;;;7.40;64.48
63194;BME280;49289;51.670;5.624;2023-12-07T00:43:57;102111.91;;;7.21;64.41
63194;BME280;49289;51.670;5.624;2023-12-07T00:45:44;102114.02;;;7.17;64.42
63194;BME280;49289;51.670;5.624;2023-12-07T00:47:31;102137.63;;;7.33;64.35
63194;BME280;49289;51.670;5.624;2023-12-07T00:49:18;102118.71;;;7.19;64.34
63194;BME280;49289;51.670;5.624;2023-12-07T00:51:05;102117.98;;;7.18;64.25
63194;BME280;49289;51.670;5.624;2023-12-07T00:52:52;102146.08;;;7.30;64.31
63194;BME280;49289;51.670;5.624;2023-12-07T00:54:39;102146.77;;;7.32;64.24
63194;BME280;49289;51.670;5.624;2023-12-07T00:56:26;102145.44;;;7.34;64.19
63194;BME280;49289;51.670;5.624;2023-12-07T00:58:13;102148.52;;;7.32;64.02
63194;BME280;49289;51.670;5.624;2023-12-07T01:00:00;102155.28;;;7.38;63.98
63194;BME280;49289;51.670;5.624;2023-12-07T01:01:47;102151.81;;;7.31;63.98
63194;BME280;49289;51.670;5.624;2023-12-07T01:03:34;102154.48;;;7.24;64.19
63194;BME280;49289;51.670;5.624;2023-12-07T01:05:21;102137.70;;;7.17;64.24
63194;BME280;49289;51.670;5.624;2023-12-07T01:07:08;102146.67;;;7.23;64.13
63194;BME280;49289;51.670;5.624;2023-12-07T01:08:55;102142.76;;;7.27;64.22
63194;BME280;49289;51.670;5.624;2023-12-07T01:10:42;102123.12;;;7.15;64.06
63194;BME280;49289;51.670;5.624;2023-12-07T01:12:29;102147.42;;;7.16;64.16
63194;BME280;49289;51.670;5.624;2023-12-07T01:14:16;102148.78;;;7.18;64.30
63194;BME280;49289;51.670;5.624;2023-12-07T01:16:03;102148.57;;;7.24;64.11
63194;BME280;49289;51.670;5.624;2023-12-07T01:17:50;102149.84;;;7.17;64.12
63194;BME280;49289;51.670;5.624;2023-12-07T01:19:37;102131.86;;;7.08;64.01
63194;BME280;49289;51.670;5.624;2023-12-07T01:21:24;102156.84;;;7.14;64.09
63194;BME280;49289;51.670;5.624;2023-12-07T01:23:11;102160.89;;;7.21;63.92
63194;BME280;49289;51.670;5.624;2023-12-07T01:24:58;102159.32;;;7.12;64.24
63194;BME280;49289;51.670;5.624;2023-12-07T01:26:45;102159.75;;;7.12;64.17
63194;BME280;49289;51.670;5.624;2023-12-07T01:28:32;102154.89;;;7.12;64.18
63194;BME280;49289;51.670;5.624;2023-12-07T01:30:20;102157.30;;;7.15;64.03
63194;BME280;49289;51.670;5.624;2023-12-07T01:32:07;102159.85;;;7.15;64.03
63194;BME280;49289;51.670;5.624;2023-12-07T01:33:54;102164.71;;;7.21;63.56
63194;BME280;49289;51.670;5.624;2023-12-07T01:35:41;102156.95;;;7.13;63.60
63194;BME280;49289;51.670;5.624;2023-12-07T01:37:28;102125.39;;;6.90;63.75
63194;BME280;49289;51.670;5.624;2023-12-07T01:39:15;102163.47;;;7.06;63.98
63194;BME280;49289;51.670;5.624;2023-12-07T01:41:02;102167.87;;;7.08;63.82
63194;BME280;49289;51.670;5.624;2023-12-07T01:42:54;102165.95;;;7.21;63.65
63194;BME280;49289;51.670;5.624;2023-12-07T01:44:41;102165.47;;;7.18;63.55
63194;BME280;49289;51.670;5.624;2023-12-07T01:46:28;102165.56;;;7.04;63.82
63194;BME280;49289;51.670;5.624;2023-12-07T01:48:15;102167.00;;;7.06;63.58
63194;BME280;49289;51.670;5.624;2023-12-07T01:50:02;102145.95;;;6.81;63.88
63194;BME280;49289;51.670;5.624;2023-12-07T01:51:49;102171.25;;;7.01;63.81
63194;BME280;49289;51.670;5.624;2023-12-07T01:53:36;102176.77;;;7.04;63.82
63194;BME280;49289;51.670;5.624;2023-12-07T01:55:23;102167.41;;;7.16;63.48
63194;BME280;49289;51.670;5.624;2023-12-07T01:57:10;102152.23;;;7.02;63.59
63194;BME280;49289;51.670;5.624;2023-12-07T01:58:57;102164.41;;;7.14;63.36
63194;BME280;49289;51.670;5.624;2023-12-07T02:00:44;102162.66;;;7.06;63.41
63194;BME280;49289;51.670;5.624;2023-12-07T02:02:31;102170.27;;;7.01;63.65
63194;BME280;49289;51.670;5.624;2023-12-07T02:04:18;102176.67;;;7.01;63.78
63194;BME280;49289;51.670;5.624;2023-12-07T02:06:05;102170.58;;;7.02;63.54
63194;BME280;49289;51.670;5.624;2023-12-07T02:07:52;102149.34;;;6.91;63.65
63194;BME280;49289;51.670;5.624;2023-12-07T02:09:38;102178.87;;;7.03;63.51
63194;BME280;49289;51.670;5.624;2023-12-07T02:11:25;102175.20;;;6.97;63.58
63194;BME280;49289;51.670;5.624;2023-12-07T02:13:12;102173.36;;;7.00;63.81
63194;BME280;49289;51.670;5.624;2023-12-07T02:15:00;102149.31;;;6.95;63.63
63194;BME280;49289;51.670;5.624;2023-12-07T02:16:48;102175.70;;;7.05;63.66
63194;BME280;49289;51.670;5.624;2023-12-07T02:18:37;102139.65;;;6.86;63.78
63194;BME280;49289;51.670;5.624;2023-12-07T02:20:24;102170.16;;;7.08;63.86
63194;BME280;49289;51.670;5.624;2023-12-07T02:22:12;102168.87;;;6.99;64.13
63194;BME280;49289;51.670;5.624;2023-12-07T02:23:57;102167.07;;;7.01;64.04
63194;BME280;49289;51.670;5.624;2023-12-07T02:25:46;102169.17;;;7.17;63.75
63194;BME280;49289;51.670;5.624;2023-12-07T02:27:43;102169.69;;;7.13;63.90
63194;BME280;49289;51.670;5.624;2023-12-07T02:29:30;102169.33;;;7.19;63.88
63194;BME280;49289;51.670;5.624;2023-12-07T02:31:17;102171.71;;;7.19;63.96
63194;BME280;49289;51.670;5.624;2023-12-07T02:33:04;102178.19;;;7.09;63.99
63194;BME280;49289;51.670;5.624;2023-12-07T02:34:51;102150.98;;;6.98;64.19
63194;BME280;49289;51.670;5.624;2023-12-07T02:36:38;102177.95;;;7.13;64.51
63194;BME280;49289;51.670;5.624;2023-12-07T02:38:25;102174.98;;;7.17;64.47
63194;BME280;49289;51.670;5.624;2023-12-07T02:40:13;102175.25;;;7.21;64.47
63194;BME280;49289;51.670;5.624;2023-12-07T02:41:59;102172.81;;;7.21;64.55
63194;BME280;49289;51.670;5.624;2023-12-07T02:43:46;102171.48;;;7.29;64.35
63194;BME280;49289;51.670;5.624;2023-12-07T02:45:33;102140.84;;;7.11;64.42
63194;BME280;49289;51.670;5.624;2023-12-07T02:47:20;102165.83;;;7.35;64.35
63194;BME280;49289;51.670;5.624;2023-12-07T02:49:07;102142.08;;;7.18;64.50
63194;BME280;49289;51.670;5.624;2023-12-07T02:50:54;102164.09;;;7.35;64.36
63194;BME280;49289;51.670;5.624;2023-12-07T02:52:41;102134.82;;;7.30;64.11
63194;BME280;49289;51.670;5.624;2023-12-07T02:54:28;102156.77;;;7.37;64.25
63194;BME280;49289;51.670;5.624;2023-12-07T02:56:16;102157.06;;;7.37;64.18
63194;BME280;49289;51.670;5.624;2023-12-07T02:58:03;102155.03;;;7.23;64.27
63194;BME280;49289;51.670;5.624;2023-12-07T02:59:50;102155.47;;;7.31;64.68
63194;BME280;49289;51.670;5.624;2023-12-07T03:01:37;102132.88;;;7.29;64.38
63194;BME280;49289;51.670;5.624;2023-12-07T03:03:24;102162.01;;;7.41;64.69
63194;BME280;49289;51.670;5.624;2023-12-07T03:05:11;102137.77;;;7.20;64.99
63194;BME280;49289;51.670;5.624;2023-12-07T03:06:58;102131.05;;;7.12;65.49
63194;BME280;49289;51.670;5.624;2023-12-07T03:08:45;102132.69;;;7.28;65.43
63194;BME280;49289;51.670;5.624;2023-12-07T03:10:32;102135.24;;;7.37;65.24
63194;BME280;49289;51.670;5.624;2023-12-07T03:12:19;102157.73;;;7.52;65.06
63194;BME280;49289;51.670;5.624;2023-12-07T03:14:06;102157.11;;;7.56;64.96
63194;BME280;49289;51.670;5.624;2023-12-07T03:15:53;102133.17;;;7.46;64.84
63194;BME280;49289;51.670;5.624;2023-12-07T03:17:40;102128.03;;;7.41;64.72
63194;BME280;49289;51.670;5.624;2023-12-07T03:19:27;102155.34;;;7.64;64.77
63194;BME280;49289;51.670;5.624;2023-12-07T03:21:14;102162.93;;;7.68;65.19
63194;BME280;49289;51.670;5.624;2023-12-07T03:23:01;102161.53;;;7.61;65.46
63194;BME280;49289;51.670;5.624;2023-12-07T03:24:50;102165.64;;;7.64;65.57
63194;BME280;49289;51.670;5.624;2023-12-07T03:26:36;102161.78;;;7.75;65.29
63194;BME280;49289;51.670;5.624;2023-12-07T03:28:23;102139.81;;;7.62;65.57
63194;BME280;49289;51.670;5.624;2023-12-07T03:30:11;102139.82;;;7.60;65.69
63194;BME280;49289;51.670;5.624;2023-12-07T03:31:58;102148.73;;;7.47;65.93
63194;BME280;49289;51.670;5.624;2023-12-07T03:33:46;102168.17;;;7.77;66.29
63194;BME280;49289;51.670;5.624;2023-12-07T03:35:33;102147.05;;;7.56;66.17
63194;BME280;49289;51.670;5.624;2023-12-07T03:37:23;102177.52;;;7.41;66.77
63194;BME280;49289;51.670;5.624;2023-12-07T03:39:10;102178.02;;;7.11;68.86
63194;BME280;49289;51.670;5.624;2023-12-07T03:40:57;102163.59;;;6.74;70.44
63194;BME280;49289;51.670;5.624;2023-12-07T03:42:44;102174.78;;;6.71;71.37
63194;BME280;49289;51.670;5.624;2023-12-07T03:44:31;102150.38;;;6.69;72.30
63194;BME280;49289;51.670;5.624;2023-12-07T03:46:18;102179.44;;;6.34;72.16
63194;BME280;49289;51.670;5.624;2023-12-07T03:48:05;102184.31;;;6.47;72.29
63194;BME280;49289;51.670;5.624;2023-12-07T03:49:52;102177.83;;;6.33;74.00
63194;BME280;49289;51.670;5.624;2023-12-07T03:51:39;102184.08;;;5.98;75.81
63194;BME280;49289;51.670;5.624;2023-12-07T03:53:26;102158.01;;;5.79;77.49
63194;BME280;49289;51.670;5.624;2023-12-07T03:55:13;102170.38;;;6.88;75.04
63194;BME280;49289;51.670;5.624;2023-12-07T03:57:00;102182.92;;;7.17;73.28
63194;BME280;49289;51.670;5.624;2023-12-07T03:58:47;102186.48;;;7.57;71.25
63194;BME280;49289;51.670;5.624;2023-12-07T04:00:34;102186.48;;;7.75;70.22
63194;BME280;49289;51.670;5.624;2023-12-07T04:02:21;102187.59;;;7.06;71.01
63194;BME280;49289;51.670;5.624;2023-12-07T04:04:08;102189.64;;;7.48;71.57
63194;BME280;49289;51.670;5.624;2023-12-07T04:05:55;102194.17;;;7.69;70.39
63194;BME280;49289;51.670;5.624;2023-12-07T04:07:42;102203.30;;;6.66;72.81
63194;BME280;49289;51.670;5.624;2023-12-07T04:09:29;102209.84;;;6.55;73.59
63194;BME280;49289;51.670;5.624;2023-12-07T04:11:16;102208.65;;;6.97;73.70
63194;BME280;49289;51.670;5.624;2023-12-07T04:13:03;102205.03;;;7.30;72.12
63194;BME280;49289;51.670;5.624;2023-12-07T04:14:50;102200.80;;;7.77;70.35
63194;BME280;49289;51.670;5.624;2023-12-07T04:16:37;102199.92;;;7.94;69.46
63194;BME280;49289;51.670;5.624;2023-12-07T04:18:24;102193.38;;;8.07;68.65
63194;BME280;49289;51.670;5.624;2023-12-07T04:20:12;102201.50;;;8.04;68.43
63194;BME280;49289;51.670;5.624;2023-12-07T04:21:59;102192.77;;;8.08;68.18
63194;BME280;49289;51.670;5.624;2023-12-07T04:23:46;102194.16;;;8.16;67.98
63194;BME280;49289;51.670;5.624;2023-12-07T04:25:33;102177.05;;;8.00;67.96
63194;BME280;49289;51.670;5.624;2023-12-07T04:27:20;102199.79;;;7.95;68.17
63194;BME280;49289;51.670;5.624;2023-12-07T04:29:07;102210.23;;;7.58;69.21
63194;BME280;49289;51.670;5.624;2023-12-07T04:30:54;102187.33;;;7.46;68.81
63194;BME280;49289;51.670;5.624;2023-12-07T04:32:41;102211.62;;;7.57;69.05
63194;BME280;49289;51.670;5.624;2023-12-07T04:34:28;102210.11;;;6.83;69.95
63194;BME280;49289;51.670;5.624;2023-12-07T04:36:15;102211.06;;;6.86;72.16
63194;BME280;49289;51.670;5.624;2023-12-07T04:38:02;102205.81;;;7.32;70.60
63194;BME280;49289;51.670;5.624;2023-12-07T04:39:49;102213.63;;;6.98;70.90
63194;BME280;49289;51.670;5.624;2023-12-07T04:41:36;102204.00;;;6.88;71.82
63194;BME280;49289;51.670;5.624;2023-12-07T04:43:23;102200.53;;;7.15;71.72
63194;BME280;49289;51.670;5.624;2023-12-07T04:45:11;102205.66;;;6.87;71.33
63194;BME280;49289;51.670;5.624;2023-12-07T04:46:58;102209.47;;;6.71;72.57
63194;BME280;49289;51.670;5.624;2023-12-07T04:48:45;102208.75;;;6.71;73.29
63194;BME280;49289;51.670;5.624;2023-12-07T04:50:32;102210.31;;;6.97;73.24
63194;BME280;49289;51.670;5.624;2023-12-07T04:52:19;102211.84;;;7.46;71.45
63194;BME280;49289;51.670;5.624;2023-12-07T04:54:06;102212.51;;;7.14;70.89
63194;BME280;49289;51.670;5.624;2023-12-07T04:55:53;102217.44;;;7.26;71.58
63194;BME280;49289;51.670;5.624;2023-12-07T04:57:25;102182.70;;;6.28;72.53
63194;BME280;49289;51.670;5.624;2023-12-07T04:59:12;102207.88;;;7.13;72.23
63194;BME280;49289;51.670;5.624;2023-12-07T05:00:59;102212.50;;;7.26;71.40
63194;BME280;49289;51.670;5.624;2023-12-07T05:02:46;102212.09;;;6.88;71.88
63194;BME280;49289;51.670;5.624;2023-12-07T05:04:33;102182.48;;;7.16;71.72
63194;BME280;49289;51.670;5.624;2023-12-07T05:06:20;102205.31;;;7.35;71.10
63194;BME280;49289;51.670;5.624;2023-12-07T05:08:07;102213.37;;;7.28;71.41
63194;BME280;49289;51.670;5.624;2023-12-07T05:09:54;102207.69;;;6.80;72.68
63194;BME280;49289;51.670;5.624;2023-12-07T05:11:41;102205.67;;;6.76;73.73
63194;BME280;49289;51.670;5.624;2023-12-07T05:13:28;102204.52;;;6.02;76.19
63194;BME280;49289;51.670;5.624;2023-12-07T05:15:15;102177.62;;;5.88;77.31
63194;BME280;49289;51.670;5.624;2023-12-07T05:17:02;102199.31;;;6.97;74.55
63194;BME280;49289;51.670;5.624;2023-12-07T05:18:49;102182.42;;;7.45;71.92
63194;BME280;49289;51.670;5.624;2023-12-07T05:20:36;102187.05;;;7.37;71.30
63194;BME280;49289;51.670;5.624;2023-12-07T05:22:23;102179.77;;;7.09;71.32
63194;BME280;49289;51.670;5.624;2023-12-07T05:24:11;102188.00;;;7.10;72.78
63194;BME280;49289;51.670;5.624;2023-12-07T05:25:58;102166.08;;;7.55;70.97
63194;BME280;49289;51.670;5.624;2023-12-07T05:27:44;102195.26;;;7.20;70.12
63194;BME280;49289;51.670;5.624;2023-12-07T05:29:31;102201.89;;;6.09;75.34
63194;BME280;49289;51.670;5.624;2023-12-07T05:31:21;102195.87;;;6.46;75.92
63194;BME280;49289;51.670;5.624;2023-12-07T05:33:08;102192.02;;;6.95;73.43
63194;BME280;49289;51.670;5.624;2023-12-07T05:34:55;102187.91;;;7.38;71.76
63194;BME280;49289;51.670;5.624;2023-12-07T05:36:42;102168.62;;;7.30;71.04
63194;BME280;49289;51.670;5.624;2023-12-07T05:38:29;102192.31;;;7.13;71.37
63194;BME280;49289;51.670;5.624;2023-12-07T05:40:16;102165.66;;;7.14;71.32
63194;BME280;49289;51.670;5.624;2023-12-07T05:42:03;102178.36;;;7.40;71.03
63194;BME280;49289;51.670;5.624;2023-12-07T05:43:50;102196.05;;;7.06;70.95
63194;BME280;49289;51.670;5.624;2023-12-07T05:45:37;102193.41;;;7.39;71.30
63194;BME280;49289;51.670;5.624;2023-12-07T05:47:25;102188.88;;;7.44;70.64
63194;BME280;49289;51.670;5.624;2023-12-07T05:49:11;102184.81;;;6.65;72.21
63194;BME280;49289;51.670;5.624;2023-12-07T05:50:58;102185.45;;;6.74;73.19
63194;BME280;49289;51.670;5.624;2023-12-07T05:52:45;102181.12;;;7.29;72.15
63194;BME280;49289;51.670;5.624;2023-12-07T05:54:32;102182.58;;;7.58;70.70
63194;BME280;49289;51.670;5.624;2023-12-07T05:56:23;102181.08;;;7.66;70.30
63194;BME280;49289;51.670;5.624;2023-12-07T05:58:10;102182.23;;;7.63;69.76
63194;BME280;49289;51.670;5.624;2023-12-07T05:59:57;102177.70;;;7.71;69.56
63194;BME280;49289;51.670;5.624;2023-12-07T06:01:44;102170.80;;;7.60;69.60
63194;BME280;49289;51.670;5.624;2023-12-07T06:03:31;102174.71;;;7.86;69.14
63194;BME280;49289;51.670;5.624;2023-12-07T06:05:19;102173.91;;;7.69;68.91
63194;BME280;49289;51.670;5.624;2023-12-07T06:07:06;102177.14;;;7.68;69.30
63194;BME280;49289;51.670;5.624;2023-12-07T06:08:53;102176.30;;;7.72;68.97
63194;BME280;49289;51.670;5.624;2023-12-07T06:10:40;102145.89;;;7.66;68.67
63194;BME280;49289;51.670;5.624;2023-12-07T06:12:26;102175.56;;;7.67;68.80
63194;BME280;49289;51.670;5.624;2023-12-07T06:14:13;102174.02;;;7.55;69.07
63194;BME280;49289;51.670;5.624;2023-12-07T06:16:00;102169.66;;;7.53;69.10
63194;BME280;49289;51.670;5.624;2023-12-07T06:17:47;102170.38;;;7.56;69.03
63194;BME280;49289;51.670;5.624;2023-12-07T06:19:34;102170.06;;;7.18;70.17
63194;BME280;49289;51.670;5.624;2023-12-07T06:21:21;102173.09;;;7.29;70.28
63194;BME280;49289;51.670;5.624;2023-12-07T06:23:08;102184.98;;;6.94;70.87
63194;BME280;49289;51.670;5.624;2023-12-07T06:24:55;102188.58;;;6.97;71.42
63194;BME280;49289;51.670;5.624;2023-12-07T06:26:42;102193.86;;;7.29;71.20
63194;BME280;49289;51.670;5.624;2023-12-07T06:28:29;102196.10;;;6.99;71.04
63194;BME280;49289;51.670;5.624;2023-12-07T06:30:17;102175.84;;;6.16;73.14
63194;BME280;49289;51.670;5.624;2023-12-07T06:32:04;102197.33;;;6.59;72.53
63194;BME280;49289;51.670;5.624;2023-12-07T06:33:51;102173.14;;;6.84;72.73
63194;BME280;49289;51.670;5.624;2023-12-07T06:35:38;102205.47;;;7.13;71.75
63194;BME280;49289;51.670;5.624;2023-12-07T06:37:25;102138.50;;;6.71;72.48
63194;BME280;49289;51.670;5.624;2023-12-07T06:39:12;102196.19;;;6.59;72.06
63194;BME280;49289;51.670;5.624;2023-12-07T06:40:59;102188.60;;;6.91;71.74
63194;BME280;49289;51.670;5.624;2023-12-07T06:42:46;102164.06;;;6.30;74.77
63194;BME280;49289;51.670;5.624;2023-12-07T06:44:33;102189.36;;;7.20;72.33
63194;BME280;49289;51.670;5.624;2023-12-07T06:46:20;102188.58;;;7.06;71.73
63194;BME280;49289;51.670;5.624;2023-12-07T06:48:08;102187.70;;;7.50;70.82
63194;BME280;49289;51.670;5.624;2023-12-07T06:49:55;102194.17;;;7.34;70.71
63194;BME280;49289;51.670;5.624;2023-12-07T06:51:41;102191.40;;;7.22;71.04
63194;BME280;49289;51.670;5.624;2023-12-07T06:53:28;102186.86;;;6.93;72.89
63194;BME280;49289;51.670;5.624;2023-12-07T06:55:16;102192.63;;;6.59;73.54
63194;BME280;49289;51.670;5.624;2023-12-07T06:57:03;102194.55;;;7.09;72.39
63194;BME280;49289;51.670;5.624;2023-12-07T06:58:50;102176.13;;;6.24;73.96
63194;BME280;49289;51.670;5.624;2023-12-07T07:00:37;101984.95;;;5.58;74.24
63194;BME280;49289;51.670;5.624;2023-12-07T07:02:24;102185.51;;;7.21;72.21
63194;BME280;49289;51.670;5.624;2023-12-07T07:04:11;102184.73;;;6.82;73.09
63194;BME280;49289;51.670;5.624;2023-12-07T07:05:58;102183.45;;;7.00;72.18
63194;BME280;49289;51.670;5.624;2023-12-07T07:07:45;102181.50;;;7.37;72.27
63194;BME280;49289;51.670;5.624;2023-12-07T07:09:32;102184.84;;;7.69;70.77
63194;BME280;49289;51.670;5.624;2023-12-07T07:11:22;102160.19;;;7.72;69.80
63194;BME280;49289;51.670;5.624;2023-12-07T07:13:12;102152.05;;;7.89;69.22
63194;BME280;49289;51.670;5.624;2023-12-07T07:14:59;102177.50;;;8.00;68.99
63194;BME280;49289;51.670;5.624;2023-12-07T07:16:46;102170.81;;;7.80;68.98
63194;BME280;49289;51.670;5.624;2023-12-07T07:18:33;102174.62;;;7.84;69.32
63194;BME280;49289;51.670;5.624;2023-12-07T07:20:20;102176.03;;;7.80;69.13
63194;BME280;49289;51.670;5.624;2023-12-07T07:22:07;102175.30;;;7.74;69.28
63194;BME280;49289;51.670;5.624;2023-12-07T07:23:54;102177.73;;;7.76;69.68
63194;BME280;49289;51.670;5.624;2023-12-07T07:25:41;102175.33;;;7.73;69.53
63194;BME280;49289;51.670;5.624;2023-12-07T07:27:28;102174.77;;;7.61;69.71
63194;BME280;49289;51.670;5.624;2023-12-07T07:29:16;102142.30;;;7.80;69.31
63194;BME280;49289;51.670;5.624;2023-12-07T07:31:03;102167.41;;;8.02;68.91
63194;BME280;49289;51.670;5.624;2023-12-07T07:32:50;102170.92;;;8.08;68.56
63194;BME280;49289;51.670;5.624;2023-12-07T07:34:37;102175.59;;;7.66;68.97
63194;BME280;49289;51.670;5.624;2023-12-07T07:36:24;102180.02;;;7.84;69.14
63194;BME280;49289;51.670;5.624;2023-12-07T07:38:11;102161.67;;;8.00;68.74
63194;BME280;49289;51.670;5.624;2023-12-07T07:39:57;102184.16;;;8.02;68.44
63194;BME280;49289;51.670;5.624;2023-12-07T07:41:44;102187.27;;;8.17;68.23
63194;BME280;49289;51.670;5.624;2023-12-07T07:43:53;102152.87;;;7.93;68.64
63194;BME280;49289;51.670;5.624;2023-12-07T07:45:40;102178.30;;;7.81;68.88
63194;BME280;49289;51.670;5.624;2023-12-07T07:47:27;102170.14;;;7.60;69.15
63194;BME280;49289;51.670;5.624;2023-12-07T07:49:14;102172.11;;;7.45;70.00
63194;BME280;49289;51.670;5.624;2023-12-07T07:51:01;102162.39;;;7.77;69.31
63194;BME280;49289;51.670;5.624;2023-12-07T07:52:48;102196.67;;;8.11;68.76
63194;BME280;49289;51.670;5.624;2023-12-07T07:54:35;102173.64;;;7.99;68.70
63194;BME280;49289;51.670;5.624;2023-12-07T07:56:22;102171.69;;;8.01;68.48
63194;BME280;49289;51.670;5.624;2023-12-07T07:58:09;102195.91;;;8.19;68.32
63194;BME280;49289;51.670;5.624;2023-12-07T07:59:56;102167.45;;;8.04;68.06
63194;BME280;49289;51.670;5.624;2023-12-07T08:01:43;102175.99;;;8.18;68.40
63194;BME280;49289;51.670;5.624;2023-12-07T08:03:30;102198.16;;;8.27;68.54
63194;BME280;49289;51.670;5.624;2023-12-07T08:05:18;102174.26;;;7.59;69.20
63194;BME280;49289;51.670;5.624;2023-12-07T08:07:05;102174.15;;;7.73;69.62
63194;BME280;49289;51.670;5.624;2023-12-07T08:08:52;102198.33;;;7.44;70.26
63194;BME280;49289;51.670;5.624;2023-12-07T08:10:39;102194.17;;;7.87;70.12
63194;BME280;49289;51.670;5.624;2023-12-07T08:12:25;102182.20;;;8.09;69.05
63194;BME280;49289;51.670;5.624;2023-12-07T08:14:12;102164.67;;;8.12;68.54
63194;BME280;49289;51.670;5.624;2023-12-07T08:15:59;102193.36;;;8.27;68.60
63194;BME280;49289;51.670;5.624;2023-12-07T08:17:46;102166.30;;;8.16;68.66
63194;BME280;49289;51.670;5.624;2023-12-07T08:19:33;102154.53;;;8.13;68.28
63194;BME280;49289;51.670;5.624;2023-12-07T08:21:26;102185.07;;;7.98;69.19
63194;BME280;49289;51.670;5.624;2023-12-07T08:23:13;102190.30;;;8.21;69.02
63194;BME280;49289;51.670;5.624;2023-12-07T08:25:00;102161.05;;;8.15;68.49
63194;BME280;49289;51.670;5.624;2023-12-07T08:26:47;102189.60;;;8.24;68.25
63194;BME280;49289;51.670;5.624;2023-12-07T08:28:34;102189.54;;;7.97;68.27
63194;BME280;49289;51.670;5.624;2023-12-07T08:30:21;102167.15;;;7.57;69.40
63194;BME280;49289;51.670;5.624;2023-12-07T08:32:09;102196.00;;;7.91;69.62
63194;BME280;49289;51.670;5.624;2023-12-07T08:33:56;102191.21;;;7.69;70.16
63194;BME280;49289;51.670;5.624;2023-12-07T08:35:43;102199.64;;;7.88;70.42
63194;BME280;49289;51.670;5.624;2023-12-07T08:37:30;102196.86;;;8.05;69.97
63194;BME280;49289;51.670;5.624;2023-12-07T08:39:17;102196.11;;;8.09;69.26
63194;BME280;49289;51.670;5.624;2023-12-07T08:41:04;102169.23;;;7.68;70.11
63194;BME280;49289;51.670;5.624;2023-12-07T08:42:51;102187.94;;;7.38;71.06
63194;BME280;49289;51.670;5.624;2023-12-07T08:44:38;102164.36;;;7.42;71.64
63194;BME280;49289;51.670;5.624;2023-12-07T08:46:25;102161.61;;;7.52;70.48
63194;BME280;49289;51.670;5.624;2023-12-07T08:48:12;102189.39;;;7.90;70.94
63194;BME280;49289;51.670;5.624;2023-12-07T08:49:59;102160.86;;;8.00;70.27
63194;BME280;49289;51.670;5.624;2023-12-07T08:51:46;102187.30;;;8.21;69.49
63194;BME280;49289;51.670;5.624;2023-12-07T08:53:33;102164.46;;;7.92;70.18
63194;BME280;49289;51.670;5.624;2023-12-07T08:55:20;102166.48;;;8.14;69.71
63194;BME280;49289;51.670;5.624;2023-12-07T08:57:07;102169.99;;;8.02;69.49
63194;BME280;49289;51.670;5.624;2023-12-07T08:58:54;102189.02;;;8.35;69.19
63194;BME280;49289;51.670;5.624;2023-12-07T09:00:41;102184.83;;;8.35;68.99
63194;BME280;49289;51.670;5.624;2023-12-07T09:02:28;102162.76;;;8.00;69.34
63194;BME280;49289;51.670;5.624;2023-12-07T09:04:15;102166.52;;;7.71;70.36
63194;BME280;49289;51.670;5.624;2023-12-07T09:06:02;102185.63;;;7.53;71.57
63194;BME280;49289;51.670;5.624;2023-12-07T09:07:49;102189.74;;;7.89;71.14
63194;BME280;49289;51.670;5.624;2023-12-07T09:09:36;102184.13;;;8.18;70.19
63194;BME280;49289;51.670;5.624;2023-12-07T09:11:23;102189.49;;;7.53;70.83
63194;BME280;49289;51.670;5.624;2023-12-07T09:13:10;102184.18;;;8.01;71.11
63194;BME280;49289;51.670;5.624;2023-12-07T09:14:57;102157.54;;;8.23;69.98
63194;BME280;49289;51.670;5.624;2023-12-07T09:16:48;102151.60;;;8.37;69.28
63194;BME280;49289;51.670;5.624;2023-12-07T09:18:35;102177.25;;;8.67;68.69
63194;BME280;49289;51.670;5.624;2023-12-07T09:20:22;102171.92;;;8.69;68.28
63194;BME280;49289;51.670;5.624;2023-12-07T09:22:09;102177.76;;;8.65;68.33
63194;BME280;49289;51.670;5.624;2023-12-07T09:23:56;102178.42;;;8.82;68.07
63194;BME280;49289;51.670;5.624;2023-12-07T09:25:43;102152.77;;;8.62;67.75
63194;BME280;49289;51.670;5.624;2023-12-07T09:27:30;102173.86;;;8.17;68.66